createdAt,value
2022-07-31T02:18:42.636Z,9.50
2022-07-31T02:21:09.875Z,9.50
2022-07-31T02:23:38.258Z,9.60
2022-07-31T02:26:07.458Z,9.50
2022-07-31T02:28:35.855Z,9.50
2022-07-31T02:31:02.968Z,9.50
2022-07-31T02:33:30.727Z,9.50
2022-07-31T02:35:58.612Z,9.60
2022-07-31T02:38:27.345Z,9.60
2022-07-31T02:40:56.712Z,9.60
2022-07-31T02:43:25.070Z,9.70
2022-07-31T02:45:52.037Z,9.70
2022-07-31T02:48:19.013Z,9.80
2022-07-31T02:50:46.144Z,9.80
2022-07-31T02:53:13.053Z,9.80
2022-07-31T02:55:40.359Z,9.90
2022-07-31T02:58:07.267Z,10.00
2022-07-31T03:00:34.276Z,10.20
2022-07-31T03:03:01.175Z,10.60
2022-07-31T03:05:28.131Z,11.20
2022-07-31T03:07:55.022Z,12.20
2022-07-31T03:10:22.629Z,12.80
2022-07-31T03:12:51.761Z,13.10
2022-07-31T03:15:19.918Z,13.10
2022-07-31T03:17:48.099Z,13.00
2022-07-31T03:20:15.518Z,12.80
2022-07-31T03:22:43.174Z,12.70
2022-07-31T03:25:10.592Z,12.50
2022-07-31T03:27:37.539Z,12.40
2022-07-31T03:30:05.205Z,12.40
2022-07-31T03:32:32.114Z,12.40
2022-07-31T03:34:58.951Z,12.70
2022-07-31T03:37:25.810Z,13.10
2022-07-31T03:39:52.679Z,13.50
2022-07-31T03:42:19.664Z,14.00
2022-07-31T03:44:46.788Z,14.50
2022-07-31T03:47:16.394Z,15.30
2022-07-31T03:49:43.884Z,16.20
2022-07-31T03:52:12.477Z,16.80
2022-07-31T03:54:40.441Z,17.50
2022-07-31T03:57:08.085Z,18.20
2022-07-31T03:59:39.884Z,18.90
2022-07-31T04:02:10.367Z,19.40
2022-07-31T04:04:38.310Z,19.90
2022-07-31T04:07:05.677Z,20.10
2022-07-31T04:09:32.645Z,20.50
2022-07-31T04:11:59.790Z,20.90
2022-07-31T04:14:26.718Z,21.20
2022-07-31T04:16:53.585Z,21.20
2022-07-31T04:19:20.475Z,21.20
2022-07-31T04:21:47.399Z,21.40
2022-07-31T04:24:18.393Z,21.60
2022-07-31T04:26:45.483Z,21.80
2022-07-31T04:29:12.391Z,21.90
2022-07-31T04:31:39.227Z,22.00
2022-07-31T04:34:06.054Z,22.10
2022-07-31T04:36:32.971Z,22.20
2022-07-31T04:39:00.258Z,22.40
2022-07-31T04:41:27.229Z,22.50
2022-07-31T04:43:54.167Z,22.50
2022-07-31T04:46:21.379Z,22.60
2022-07-31T04:48:49.244Z,22.60
2022-07-31T04:51:17.786Z,22.60
2022-07-31T04:53:45.225Z,22.50
2022-07-31T04:56:30.960Z,22.30
2022-07-31T04:58:58.091Z,22.10
2022-07-31T05:01:25.311Z,22.00
2022-07-31T05:03:52.370Z,21.90
2022-07-31T05:06:19.376Z,21.80
2022-07-31T05:08:46.349Z,21.80
2022-07-31T05:11:25.330Z,22.00
2022-07-31T05:13:53.214Z,22.10
2022-07-31T05:16:20.329Z,22.50
2022-07-31T05:18:47.816Z,22.60
2022-07-31T05:21:15.494Z,23.00
2022-07-31T05:23:43.102Z,23.30
2022-07-31T05:26:10.530Z,23.60
2022-07-31T05:28:37.723Z,24.10
2022-07-31T05:31:05.462Z,24.50
2022-07-31T05:33:32.319Z,24.90
2022-07-31T05:35:59.855Z,25.20
2022-07-31T05:38:27.118Z,25.20
2022-07-31T05:40:54.255Z,25.30
2022-07-31T05:43:21.315Z,25.30
2022-07-31T05:45:48.243Z,25.20
2022-07-31T05:48:15.579Z,25.40
2022-07-31T05:50:46.318Z,25.40
2022-07-31T05:53:15.524Z,25.30
2022-07-31T05:55:42.963Z,24.90
2022-07-31T05:58:13.566Z,24.60
2022-07-31T06:00:44.304Z,24.50
2022-07-31T06:03:12.626Z,24.30
2022-07-31T06:05:40.124Z,24.10
2022-07-31T06:08:07.326Z,24.00
2022-07-31T06:10:37.185Z,23.80
2022-07-31T06:13:07.010Z,23.70
2022-07-31T06:15:36.598Z,23.50
2022-07-31T06:18:04.242Z,23.70
2022-07-31T06:20:31.325Z,24.00
2022-07-31T06:22:58.359Z,24.40
2022-07-31T06:25:25.480Z,24.70
2022-07-31T06:27:59.392Z,25.20
2022-07-31T06:30:28.005Z,25.60
2022-07-31T06:32:54.893Z,25.60
2022-07-31T06:35:21.819Z,25.70
2022-07-31T06:37:48.721Z,25.70
2022-07-31T06:40:15.906Z,25.60
2022-07-31T06:42:45.339Z,25.40
2022-07-31T06:45:12.389Z,25.30
2022-07-31T06:47:44.876Z,25.40
2022-07-31T06:50:12.123Z,25.40
2022-07-31T06:52:39.145Z,25.70
2022-07-31T06:55:08.107Z,25.90
2022-07-31T06:57:35.359Z,26.00
2022-07-31T07:00:06.844Z,26.30
2022-07-31T07:02:42.168Z,26.40
2022-07-31T07:05:09.027Z,26.40
2022-07-31T07:07:36.769Z,26.60
2022-07-31T07:10:04.708Z,26.80
2022-07-31T07:12:31.596Z,26.60
2022-07-31T07:14:58.461Z,26.60
2022-07-31T07:17:28.973Z,26.50
2022-07-31T07:19:56.738Z,26.20
2022-07-31T07:22:31.305Z,26.00
2022-07-31T07:24:59.232Z,25.90
2022-07-31T07:27:26.121Z,25.80
2022-07-31T07:29:53.294Z,25.40
2022-07-31T07:32:20.141Z,25.50
2022-07-31T07:34:47.053Z,25.70
2022-07-31T07:37:13.904Z,25.90
2022-07-31T07:39:40.759Z,25.90
2022-07-31T07:42:07.803Z,26.00
2022-07-31T07:44:34.725Z,26.20
2022-07-31T07:47:01.589Z,26.50
2022-07-31T07:49:28.531Z,26.70
2022-07-31T07:51:59.553Z,26.80
2022-07-31T07:54:27.384Z,26.80
2022-07-31T07:56:55.129Z,26.90
2022-07-31T07:59:22.122Z,26.80
2022-07-31T08:01:49.056Z,26.70
2022-07-31T08:04:15.900Z,26.40
2022-07-31T08:06:42.899Z,26.20
2022-07-31T08:09:09.772Z,26.10
2022-07-31T08:11:48.067Z,25.90
2022-07-31T08:14:15.118Z,25.90
2022-07-31T08:16:42.343Z,25.70
2022-07-31T08:19:09.219Z,25.80
2022-07-31T08:21:36.425Z,25.90
2022-07-31T08:24:03.597Z,25.90
2022-07-31T08:26:48.929Z,25.70
2022-07-31T08:29:15.873Z,25.60
2022-07-31T08:31:42.752Z,25.30
2022-07-31T08:34:30.905Z,25.20
2022-07-31T08:36:58.994Z,25.10
2022-07-31T08:39:25.838Z,25.00
2022-07-31T08:41:52.743Z,25.00
2022-07-31T08:44:27.111Z,25.10
2022-07-31T08:46:58.335Z,25.00
2022-07-31T08:49:26.128Z,24.80
2022-07-31T08:51:55.266Z,24.60
2022-07-31T08:54:22.931Z,24.30
2022-07-31T08:56:52.651Z,24.20
2022-07-31T08:59:20.058Z,24.10
2022-07-31T09:01:46.912Z,24.10
2022-07-31T09:04:13.761Z,23.90
2022-07-31T09:06:40.687Z,23.90
2022-07-31T09:09:07.545Z,23.80
2022-07-31T09:11:34.968Z,23.80
2022-07-31T09:14:03.425Z,23.80
2022-07-31T09:16:31.313Z,23.80
2022-07-31T09:19:02.342Z,23.70
2022-07-31T09:21:42.415Z,23.80
2022-07-31T09:24:10.474Z,23.90
2022-07-31T09:26:40.946Z,24.10
2022-07-31T09:29:14.088Z,24.20
2022-07-31T09:31:41.025Z,24.40
2022-07-31T09:34:08.446Z,24.50
2022-07-31T09:36:35.463Z,24.40
2022-07-31T09:39:05.263Z,24.30
2022-07-31T09:42:00.975Z,24.30
2022-07-31T09:44:19.314Z,24.40
2022-07-31T09:46:52.413Z,24.40
2022-07-31T09:49:19.504Z,24.30
2022-07-31T09:51:48.430Z,24.00
2022-07-31T09:54:22.915Z,23.80
2022-07-31T09:56:50.557Z,23.70
2022-07-31T09:59:17.584Z,23.60
2022-07-31T10:01:46.227Z,23.60
2022-07-31T10:04:13.172Z,23.70
2022-07-31T10:06:40.810Z,23.80
2022-07-31T10:09:07.884Z,23.80
2022-07-31T10:11:34.885Z,23.70
2022-07-31T10:14:03.146Z,23.80
2022-07-31T10:16:32.351Z,23.80
2022-07-31T10:19:00.412Z,23.90
2022-07-31T10:21:34.222Z,24.00
2022-07-31T10:24:03.288Z,24.20
2022-07-31T10:26:57.685Z,24.20
2022-07-31T10:29:18.137Z,24.10
2022-07-31T10:31:46.681Z,24.20
2022-07-31T10:34:20.547Z,24.30
2022-07-31T10:36:49.135Z,24.30
2022-07-31T10:39:21.633Z,24.20
2022-07-31T10:42:13.086Z,24.20
2022-07-31T10:44:41.567Z,24.20
2022-07-31T10:47:13.187Z,24.20
2022-07-31T10:49:44.153Z,24.30
2022-07-31T10:52:11.280Z,24.30
2022-07-31T10:54:42.630Z,24.30
2022-07-31T10:57:09.708Z,24.40
2022-07-31T10:59:38.299Z,24.30
2022-07-31T11:02:06.739Z,24.30
2022-07-31T11:04:33.721Z,24.10
2022-07-31T11:07:00.801Z,24.00
2022-07-31T11:09:28.929Z,24.00
2022-07-31T11:11:56.681Z,24.00
2022-07-31T11:14:38.390Z,24.00
2022-07-31T11:17:05.528Z,24.00
2022-07-31T11:19:41.375Z,24.20
2022-07-31T11:22:31.555Z,24.30
2022-07-31T11:24:59.273Z,24.50
2022-07-31T11:27:31.116Z,24.60
2022-07-31T11:30:07.816Z,24.50
2022-07-31T11:32:37.897Z,24.30
2022-07-31T11:35:05.038Z,24.30
2022-07-31T11:37:46.060Z,24.40
2022-07-31T11:40:22.511Z,24.50
2022-07-31T11:43:24.401Z,24.60
2022-07-31T11:45:46.056Z,24.60
2022-07-31T11:48:15.810Z,24.60
2022-07-31T11:50:48.013Z,24.60
2022-07-31T11:53:15.640Z,24.70
2022-07-31T11:55:47.525Z,24.90
2022-07-31T11:58:18.717Z,24.90
2022-07-31T12:00:48.746Z,24.70
2022-07-31T12:03:19.222Z,24.60
2022-07-31T12:05:49.873Z,24.60
2022-07-31T12:08:17.206Z,24.40
2022-07-31T12:10:44.474Z,24.40
2022-07-31T12:13:16.259Z,24.30
2022-07-31T12:15:56.388Z,24.40
2022-07-31T12:18:23.408Z,24.40
2022-07-31T12:20:53.478Z,24.40
2022-07-31T12:23:41.182Z,24.40
2022-07-31T12:26:07.199Z,24.40
2022-07-31T12:28:34.055Z,24.40
2022-07-31T12:31:00.926Z,24.40
2022-07-31T12:33:27.823Z,24.50
2022-07-31T12:35:56.997Z,24.30
2022-07-31T12:38:40.848Z,24.20
2022-07-31T12:41:08.301Z,24.30
2022-07-31T12:43:37.690Z,24.40
2022-07-31T12:46:07.290Z,24.40
2022-07-31T12:48:39.318Z,24.50
2022-07-31T12:51:08.066Z,24.60
2022-07-31T12:53:34.885Z,24.40
2022-07-31T12:56:01.741Z,24.40
2022-07-31T12:58:28.596Z,24.50
2022-07-31T13:00:57.215Z,24.40
2022-07-31T13:03:24.097Z,24.20
2022-07-31T13:06:06.015Z,24.10
2022-07-31T13:08:33.787Z,23.90
2022-07-31T13:11:00.709Z,23.70
2022-07-31T13:13:27.577Z,23.60
2022-07-31T13:15:54.612Z,23.50
2022-07-31T13:18:21.500Z,23.40
2022-07-31T13:20:48.325Z,23.40
2022-07-31T13:23:15.234Z,23.50
2022-07-31T13:25:42.104Z,23.50
2022-07-31T13:28:08.945Z,23.50
2022-07-31T13:30:35.774Z,23.50
2022-07-31T13:33:02.613Z,23.50
2022-07-31T13:35:29.475Z,23.50
2022-07-31T13:37:56.667Z,23.60
2022-07-31T13:40:42.306Z,23.70
2022-07-31T13:43:09.190Z,23.80
2022-07-31T13:45:36.141Z,23.80
2022-07-31T13:48:08.693Z,23.70
2022-07-31T13:50:37.535Z,23.60
2022-07-31T13:53:04.777Z,23.60
2022-07-31T13:55:31.798Z,23.50
2022-07-31T13:57:59.642Z,23.40
2022-07-31T14:00:28.682Z,23.40
2022-07-31T14:02:55.582Z,23.30
2022-07-31T14:05:24.303Z,23.20
2022-07-31T14:07:53.536Z,23.10
2022-07-31T14:10:21.893Z,23.10
2022-07-31T14:12:48.925Z,23.00
2022-07-31T14:15:17.883Z,22.90
2022-07-31T14:17:44.853Z,22.90
2022-07-31T14:20:12.225Z,22.80
2022-07-31T14:22:39.183Z,22.80
2022-07-31T14:25:06.099Z,22.80
2022-07-31T14:27:34.483Z,22.80
2022-07-31T14:30:01.804Z,22.80
2022-07-31T14:32:30.565Z,22.80
2022-07-31T14:34:57.453Z,22.90
2022-07-31T14:37:24.310Z,22.90
2022-07-31T14:39:51.168Z,22.80
2022-07-31T14:42:22.427Z,22.80
2022-07-31T14:44:53.559Z,22.70
2022-07-31T14:47:20.491Z,22.60
2022-07-31T14:50:07.159Z,22.50
2022-07-31T14:52:34.448Z,22.50
2022-07-31T14:55:01.661Z,22.50
2022-07-31T14:57:29.941Z,22.40
2022-07-31T14:59:56.926Z,22.40
2022-07-31T15:02:23.976Z,22.40
2022-07-31T15:04:51.779Z,22.40
2022-07-31T15:07:41.263Z,22.30
2022-07-31T15:10:09.276Z,22.20
2022-07-31T15:12:36.112Z,22.20
2022-07-31T15:15:03.037Z,22.20
2022-07-31T15:17:29.900Z,22.10
2022-07-31T15:19:56.754Z,22.20
2022-07-31T15:22:23.818Z,22.10
2022-07-31T15:24:50.665Z,22.10
2022-07-31T15:27:18.329Z,22.10
2022-07-31T15:30:00.614Z,22.00
2022-07-31T15:32:32.131Z,22.00
2022-07-31T15:34:59.023Z,21.90
2022-07-31T15:37:25.849Z,21.90
2022-07-31T15:40:01.399Z,21.90
2022-07-31T15:42:30.603Z,21.80
2022-07-31T15:44:57.432Z,21.80
2022-07-31T15:47:24.299Z,21.70
2022-07-31T15:49:51.197Z,21.70
2022-07-31T15:52:20.172Z,21.70
2022-07-31T15:54:47.233Z,21.70
2022-07-31T15:57:19.426Z,21.60
2022-07-31T15:59:46.257Z,21.60
2022-07-31T16:02:13.118Z,21.60
2022-07-31T16:04:44.907Z,21.60
2022-07-31T16:08:28.600Z,21.60
2022-07-31T16:10:15.218Z,21.50
2022-07-31T16:12:43.529Z,21.50
2022-07-31T16:15:12.332Z,21.40
2022-07-31T16:17:39.621Z,21.40
2022-07-31T16:20:08.840Z,21.30
2022-07-31T16:22:36.473Z,21.20
2022-07-31T16:25:03.773Z,21.20
2022-07-31T16:27:30.621Z,21.10
2022-07-31T16:30:00.997Z,21.10
2022-07-31T16:32:29.226Z,21.00
2022-07-31T16:35:00.654Z,21.00
2022-07-31T16:37:51.740Z,21.00
2022-07-31T16:40:29.731Z,21.00
2022-07-31T16:43:01.145Z,20.90
2022-07-31T16:45:28.775Z,20.90
2022-07-31T16:47:55.813Z,20.80
2022-07-31T16:50:23.055Z,20.80
2022-07-31T16:52:54.142Z,20.80
2022-07-31T16:55:21.891Z,20.80
2022-07-31T16:58:11.906Z,20.70
2022-07-31T17:00:39.534Z,20.70
2022-07-31T17:03:06.597Z,20.70
2022-07-31T17:05:53.410Z,20.60
2022-07-31T17:08:20.307Z,20.60
2022-07-31T17:10:51.218Z,20.60
2022-07-31T17:13:20.878Z,20.60
2022-07-31T17:15:47.741Z,20.60
2022-07-31T17:18:14.598Z,20.50
2022-07-31T17:20:46.934Z,20.50
2022-07-31T17:23:13.992Z,20.50
2022-07-31T17:25:40.890Z,20.50
2022-07-31T17:28:11.059Z,20.50
2022-07-31T17:30:40.290Z,20.40
2022-07-31T17:33:07.223Z,20.40
2022-07-31T17:35:34.501Z,20.40
2022-07-31T17:38:01.370Z,20.40
2022-07-31T17:40:42.898Z,20.40
2022-07-31T17:43:10.155Z,20.40
2022-07-31T17:46:05.341Z,20.40
2022-07-31T17:48:25.836Z,20.30
2022-07-31T17:50:54.280Z,20.30
2022-07-31T17:53:21.288Z,20.20
2022-07-31T17:55:49.639Z,20.20
2022-07-31T17:58:16.497Z,20.20
2022-07-31T19:01:36.040Z,19.10
2022-07-31T19:04:04.489Z,18.90
2022-07-31T19:06:31.458Z,18.90
2022-07-31T19:08:58.471Z,18.90
2022-07-31T19:11:29.055Z,18.90
2022-07-31T19:13:56.083Z,18.80
2022-07-31T19:16:23.098Z,18.80
2022-07-31T19:18:51.369Z,18.80
2022-07-31T19:21:23.761Z,18.80
2022-07-31T19:24:06.918Z,18.80
2022-07-31T19:26:33.901Z,18.70
2022-07-31T19:29:01.190Z,18.70
2022-07-31T19:31:28.289Z,18.70
2022-07-31T19:33:55.300Z,18.70
2022-07-31T19:36:22.223Z,18.60
2022-07-31T19:38:49.150Z,18.60
2022-07-31T19:41:16.146Z,18.60
2022-07-31T19:43:44.890Z,18.50
2022-07-31T19:46:12.856Z,18.50
2022-07-31T19:48:41.724Z,18.50
2022-07-31T19:51:10.229Z,18.40
2022-07-31T19:53:37.691Z,18.40
2022-07-31T19:56:07.470Z,18.50
2022-07-31T19:58:35.377Z,18.50
2022-07-31T20:01:02.939Z,18.50
2022-07-31T20:03:30.202Z,18.40
2022-07-31T20:05:57.611Z,18.30
2022-07-31T20:08:24.560Z,18.30
2022-07-31T20:10:51.608Z,18.20
2022-07-31T20:13:18.818Z,18.10
2022-07-31T20:15:50.533Z,18.00
2022-07-31T20:18:26.643Z,18.00
2022-07-31T20:20:56.678Z,17.90
2022-07-31T20:23:24.312Z,17.80
2022-07-31T20:25:51.186Z,17.80
2022-07-31T20:28:18.055Z,17.80
2022-07-31T20:30:44.887Z,17.80
2022-07-31T20:33:13.478Z,17.80
2022-07-31T20:35:48.183Z,17.70
2022-07-31T20:38:17.868Z,17.70
2022-07-31T20:40:48.130Z,17.70
2022-07-31T20:43:21.574Z,17.70
2022-07-31T20:45:48.595Z,17.60
2022-07-31T20:50:48.911Z,17.60
2022-07-31T20:53:16.144Z,17.50
2022-07-31T20:55:47.170Z,17.50
2022-07-31T20:58:14.214Z,17.40
2022-07-31T21:00:41.398Z,17.40
2022-07-31T21:03:08.521Z,17.40
2022-07-31T21:05:35.388Z,17.30
2022-07-31T21:08:02.285Z,17.30
2022-07-31T21:10:29.915Z,17.20
2022-07-31T21:12:57.453Z,17.20
2022-07-31T21:15:41.700Z,17.10
2022-07-31T21:18:17.032Z,17.10
2022-07-31T21:20:51.263Z,17.00
2022-07-31T21:23:23.589Z,17.00
2022-07-31T21:25:54.404Z,17.00
2022-07-31T21:28:21.923Z,17.00
2022-07-31T21:30:48.917Z,16.90
2022-07-31T21:33:16.409Z,16.80
2022-07-31T21:35:43.676Z,16.80
2022-07-31T21:38:12.194Z,16.80
2022-07-31T21:40:40.227Z,16.80
2022-07-31T21:43:07.590Z,16.70
2022-07-31T21:45:50.450Z,16.70
2022-07-31T21:48:22.590Z,16.60
2022-07-31T21:50:49.577Z,16.60
2022-07-31T21:53:16.471Z,16.50
2022-07-31T21:55:44.038Z,16.40
2022-07-31T21:58:10.968Z,16.50
2022-07-31T22:00:38.224Z,16.40
2022-07-31T22:03:05.632Z,16.40
2022-07-31T22:06:11.190Z,16.40
2022-07-31T22:08:38.274Z,16.40
2022-07-31T22:11:05.179Z,16.30
2022-07-31T22:13:32.092Z,16.30
2022-07-31T22:16:01.004Z,16.30
2022-07-31T22:18:32.655Z,16.20
2022-07-31T22:21:00.550Z,16.20
2022-07-31T22:23:28.029Z,16.20
2022-07-31T22:25:55.391Z,16.20
2022-07-31T22:28:23.508Z,16.20
2022-07-31T22:30:50.929Z,16.10
2022-07-31T22:33:17.990Z,16.10
2022-07-31T22:35:44.870Z,16.10
2022-07-31T22:38:26.398Z,16.10
2022-07-31T22:40:53.257Z,16.10
2022-07-31T22:44:10.106Z,16.10
2022-07-31T22:46:07.366Z,16.10
2022-07-31T22:48:34.378Z,16.10
2022-07-31T22:51:01.640Z,16.10
2022-07-31T22:53:28.477Z,16.10
2022-07-31T22:55:55.316Z,16.10
2022-07-31T22:58:22.504Z,16.10
2022-07-31T23:00:49.841Z,16.10
2022-07-31T23:03:17.335Z,16.10
2022-07-31T23:06:29.353Z,16.00
2022-07-31T23:08:31.062Z,16.00
2022-07-31T23:10:57.881Z,16.00
2022-07-31T23:13:24.725Z,16.00
2022-07-31T23:15:51.644Z,16.00
2022-07-31T23:18:18.579Z,16.00
2022-07-31T23:20:45.473Z,16.10
2022-07-31T23:23:12.574Z,16.10
2022-07-31T23:25:39.520Z,16.10
2022-07-31T23:28:06.725Z,16.10
2022-07-31T23:30:33.633Z,16.00
2022-07-31T23:33:00.563Z,16.00
2022-07-31T23:35:27.417Z,16.00
2022-07-31T23:37:54.270Z,16.00
2022-07-31T23:40:21.255Z,15.90
2022-07-31T23:42:48.672Z,15.90
2022-07-31T23:45:15.917Z,15.90
2022-07-31T23:47:45.078Z,15.90
2022-07-31T23:50:14.092Z,15.80
2022-07-31T23:52:41.399Z,15.70
2022-07-31T23:55:08.598Z,15.70
2022-07-31T23:57:36.310Z,15.70
